sensor_id;sensor_type;location;lat;lon;timestamp;P1;durP1;ratioP1;P2;durP2;ratioP2
21862;SDS011;11096;51.338;12.524;2022-07-24T00:00:48;5.85;;;4.13;;
21862;SDS011;11096;51.338;12.524;2022-07-24T00:03:13;4.03;;;3.10;;
21862;SDS011;11096;51.338;12.524;2022-07-24T00:05:38;6.82;;;3.28;;
21862;SDS011;11096;51.338;12.524;2022-07-24T00:08:04;6.53;;;3.50;;
21862;SDS011;11096;51.338;12.524;2022-07-24T00:10:30;4.20;;;2.80;;
21862;SDS011;11096;51.338;12.524;2022-07-24T00:12:56;3.40;;;3.10;;
21862;SDS011;11096;51.338;12.524;2022-07-24T00:15:21;6.68;;;3.65;;
21862;SDS011;11096;51.338;12.524;2022-07-24T00:17:48;4.20;;;3.33;;
21862;SDS011;11096;51.338;12.524;2022-07-24T00:20:13;3.95;;;3.53;;
21862;SDS011;11096;51.338;12.524;2022-07-24T00:22:39;7.35;;;3.72;;
21862;SDS011;11096;51.338;12.524;2022-07-24T00:25:04;4.40;;;3.10;;
21862;SDS011;11096;51.338;12.524;2022-07-24T00:27:30;3.88;;;3.35;;
21862;SDS011;11096;51.338;12.524;2022-07-24T00:29:55;6.38;;;3.72;;
21862;SDS011;11096;51.338;12.524;2022-07-24T00:32:21;4.45;;;3.47;;
21862;SDS011;11096;51.338;12.524;2022-07-24T00:34:46;6.85;;;3.00;;
21862;SDS011;11096;51.338;12.524;2022-07-24T00:37:12;4.22;;;3.38;;
21862;SDS011;11096;51.338;12.524;2022-07-24T00:39:37;3.90;;;3.58;;
21862;SDS011;11096;51.338;12.524;2022-07-24T00:42:03;4.68;;;3.47;;
21862;SDS011;11096;51.338;12.524;2022-07-24T00:44:28;4.40;;;3.58;;
21862;SDS011;11096;51.338;12.524;2022-07-24T00:46:54;3.70;;;3.28;;
21862;SDS011;11096;51.338;12.524;2022-07-24T00:49:19;4.97;;;4.10;;
21862;SDS011;11096;51.338;12.524;2022-07-24T00:51:46;7.50;;;4.18;;
21862;SDS011;11096;51.338;12.524;2022-07-24T00:54:13;5.28;;;4.38;;
21862;SDS011;11096;51.338;12.524;2022-07-24T00:56:43;5.40;;;4.30;;
21862;SDS011;11096;51.338;12.524;2022-07-24T00:59:10;5.32;;;4.20;;
21862;SDS011;11096;51.338;12.524;2022-07-24T01:01:36;5.78;;;3.67;;
21862;SDS011;11096;51.338;12.524;2022-07-24T01:04:02;5.65;;;4.40;;
21862;SDS011;11096;51.338;12.524;2022-07-24T01:06:28;7.53;;;4.50;;
21862;SDS011;11096;51.338;12.524;2022-07-24T01:08:53;4.80;;;4.30;;
21862;SDS011;11096;51.338;12.524;2022-07-24T01:11:19;4.93;;;4.20;;
21862;SDS011;11096;51.338;12.524;2022-07-24T01:13:47;6.95;;;4.30;;
21862;SDS011;11096;51.338;12.524;2022-07-24T01:16:13;6.45;;;3.95;;
21862;SDS011;11096;51.338;12.524;2022-07-24T01:18:40;5.38;;;4.47;;
21862;SDS011;11096;51.338;12.524;2022-07-24T01:21:05;5.05;;;4.13;;
21862;SDS011;11096;51.338;12.524;2022-07-24T01:23:34;8.27;;;4.65;;
21862;SDS011;11096;51.338;12.524;2022-07-24T01:26:09;5.07;;;4.57;;
21862;SDS011;11096;51.338;12.524;2022-07-24T01:28:35;6.28;;;4.03;;
21862;SDS011;11096;51.338;12.524;2022-07-24T01:31:01;5.85;;;4.43;;
21862;SDS011;11096;51.338;12.524;2022-07-24T01:33:27;6.15;;;4.97;;
21862;SDS011;11096;51.338;12.524;2022-07-24T01:35:52;7.10;;;5.25;;
21862;SDS011;11096;51.338;12.524;2022-07-24T01:38:18;4.97;;;4.47;;
21862;SDS011;11096;51.338;12.524;2022-07-24T01:40:43;5.88;;;4.80;;
21862;SDS011;11096;51.338;12.524;2022-07-24T01:43:09;6.53;;;4.95;;
21862;SDS011;11096;51.338;12.524;2022-07-24T01:45:35;5.05;;;4.57;;
21862;SDS011;11096;51.338;12.524;2022-07-24T01:48:01;6.30;;;4.10;;
21862;SDS011;11096;51.338;12.524;2022-07-24T01:50:27;5.63;;;4.15;;
21862;SDS011;11096;51.338;12.524;2022-07-24T01:52:53;7.32;;;4.90;;
21862;SDS011;11096;51.338;12.524;2022-07-24T01:55:19;6.82;;;5.38;;
21862;SDS011;11096;51.338;12.524;2022-07-24T01:57:45;6.65;;;5.00;;
21862;SDS011;11096;51.338;12.524;2022-07-24T02:00:11;9.75;;;5.65;;
21862;SDS011;11096;51.338;12.524;2022-07-24T02:02:38;5.55;;;5.05;;
21862;SDS011;11096;51.338;12.524;2022-07-24T02:05:04;7.50;;;4.93;;
21862;SDS011;11096;51.338;12.524;2022-07-24T02:07:30;6.18;;;4.80;;
21862;SDS011;11096;51.338;12.524;2022-07-24T02:09:56;5.47;;;4.95;;
21862;SDS011;11096;51.338;12.524;2022-07-24T02:12:21;6.63;;;4.60;;
21862;SDS011;11096;51.338;12.524;2022-07-24T02:14:47;7.18;;;4.93;;
21862;SDS011;11096;51.338;12.524;2022-07-24T02:17:12;7.68;;;5.00;;
21862;SDS011;11096;51.338;12.524;2022-07-24T02:19:37;11.57;;;5.15;;
21862;SDS011;11096;51.338;12.524;2022-07-24T02:22:03;5.57;;;5.00;;
21862;SDS011;11096;51.338;12.524;2022-07-24T02:24:29;5.72;;;4.90;;
21862;SDS011;11096;51.338;12.524;2022-07-24T02:26:54;5.78;;;5.10;;
21862;SDS011;11096;51.338;12.524;2022-07-24T02:29:20;5.35;;;4.75;;
21862;SDS011;11096;51.338;12.524;2022-07-24T02:31:45;9.25;;;4.93;;
21862;SDS011;11096;51.338;12.524;2022-07-24T02:34:11;7.32;;;6.43;;
21862;SDS011;11096;51.338;12.524;2022-07-24T02:36:37;9.30;;;6.30;;
21862;SDS011;11096;51.338;12.524;2022-07-24T02:39:02;7.35;;;5.28;;
21862;SDS011;11096;51.338;12.524;2022-07-24T02:41:28;6.53;;;5.55;;
21862;SDS011;11096;51.338;12.524;2022-07-24T02:43:54;7.93;;;6.10;;
21862;SDS011;11096;51.338;12.524;2022-07-24T02:46:19;7.18;;;5.40;;
21862;SDS011;11096;51.338;12.524;2022-07-24T02:48:47;7.22;;;5.15;;
21862;SDS011;11096;51.338;12.524;2022-07-24T02:51:14;6.00;;;5.40;;
21862;SDS011;11096;51.338;12.524;2022-07-24T02:53:39;6.72;;;5.68;;
21862;SDS011;11096;51.338;12.524;2022-07-24T02:56:05;6.07;;;5.30;;
21862;SDS011;11096;51.338;12.524;2022-07-24T02:58:30;6.85;;;5.63;;
21862;SDS011;11096;51.338;12.524;2022-07-24T03:00:56;5.35;;;4.85;;
21862;SDS011;11096;51.338;12.524;2022-07-24T03:03:21;6.88;;;5.53;;
21862;SDS011;11096;51.338;12.524;2022-07-24T03:05:47;6.90;;;4.93;;
21862;SDS011;11096;51.338;12.524;2022-07-24T03:08:12;6.07;;;4.90;;
21862;SDS011;11096;51.338;12.524;2022-07-24T03:10:38;9.10;;;5.10;;
21862;SDS011;11096;51.338;12.524;2022-07-24T03:13:03;6.15;;;5.32;;
21862;SDS011;11096;51.338;12.524;2022-07-24T03:15:30;6.43;;;5.72;;
21862;SDS011;11096;51.338;12.524;2022-07-24T03:17:56;7.40;;;5.95;;
21862;SDS011;11096;51.338;12.524;2022-07-24T03:20:23;9.18;;;5.63;;
21862;SDS011;11096;51.338;12.524;2022-07-24T03:22:49;6.65;;;5.60;;
21862;SDS011;11096;51.338;12.524;2022-07-24T03:25:15;8.60;;;5.68;;
21862;SDS011;11096;51.338;12.524;2022-07-24T03:27:41;8.20;;;6.25;;
21862;SDS011;11096;51.338;12.524;2022-07-24T03:30:07;9.02;;;6.75;;
21862;SDS011;11096;51.338;12.524;2022-07-24T03:32:34;7.68;;;5.80;;
21862;SDS011;11096;51.338;12.524;2022-07-24T03:34:59;10.68;;;6.07;;
21862;SDS011;11096;51.338;12.524;2022-07-24T03:37:24;6.93;;;5.50;;
21862;SDS011;11096;51.338;12.524;2022-07-24T03:39:50;6.28;;;5.47;;
21862;SDS011;11096;51.338;12.524;2022-07-24T03:42:15;8.63;;;6.13;;
21862;SDS011;11096;51.338;12.524;2022-07-24T03:44:41;6.38;;;5.78;;
21862;SDS011;11096;51.338;12.524;2022-07-24T03:47:06;7.10;;;6.10;;
21862;SDS011;11096;51.338;12.524;2022-07-24T03:49:32;7.40;;;6.70;;
21862;SDS011;11096;51.338;12.524;2022-07-24T03:51:57;8.43;;;6.35;;
21862;SDS011;11096;51.338;12.524;2022-07-24T03:54:23;9.77;;;6.53;;
21862;SDS011;11096;51.338;12.524;2022-07-24T03:56:48;6.88;;;5.95;;
21862;SDS011;11096;51.338;12.524;2022-07-24T03:59:14;6.38;;;5.78;;
21862;SDS011;11096;51.338;12.524;2022-07-24T04:01:39;6.45;;;5.53;;
21862;SDS011;11096;51.338;12.524;2022-07-24T04:04:05;7.07;;;6.10;;
21862;SDS011;11096;51.338;12.524;2022-07-24T04:06:31;7.95;;;5.35;;
21862;SDS011;11096;51.338;12.524;2022-07-24T04:08:58;7.88;;;5.20;;
21862;SDS011;11096;51.338;12.524;2022-07-24T04:11:24;7.18;;;5.78;;
21862;SDS011;11096;51.338;12.524;2022-07-24T04:13:49;6.70;;;6.00;;
21862;SDS011;11096;51.338;12.524;2022-07-24T04:16:15;7.13;;;5.65;;
21862;SDS011;11096;51.338;12.524;2022-07-24T04:18:40;6.35;;;5.47;;
21862;SDS011;11096;51.338;12.524;2022-07-24T04:21:05;6.50;;;5.90;;
21862;SDS011;11096;51.338;12.524;2022-07-24T04:23:31;7.82;;;5.35;;
21862;SDS011;11096;51.338;12.524;2022-07-24T04:25:56;6.45;;;5.60;;
21862;SDS011;11096;51.338;12.524;2022-07-24T04:28:22;6.25;;;5.50;;
21862;SDS011;11096;51.338;12.524;2022-07-24T04:30:47;5.88;;;5.07;;
21862;SDS011;11096;51.338;12.524;2022-07-24T04:33:12;6.22;;;5.10;;
21862;SDS011;11096;51.338;12.524;2022-07-24T04:35:37;8.15;;;5.57;;
21862;SDS011;11096;51.338;12.524;2022-07-24T04:38:03;7.35;;;5.25;;
21862;SDS011;11096;51.338;12.524;2022-07-24T04:40:28;9.20;;;5.72;;
21862;SDS011;11096;51.338;12.524;2022-07-24T04:42:54;8.15;;;5.90;;
21862;SDS011;11096;51.338;12.524;2022-07-24T04:45:19;10.23;;;5.50;;
21862;SDS011;11096;51.338;12.524;2022-07-24T04:47:45;7.03;;;5.15;;
21862;SDS011;11096;51.338;12.524;2022-07-24T04:50:10;6.78;;;5.47;;
21862;SDS011;11096;51.338;12.524;2022-07-24T04:52:36;7.80;;;5.50;;
21862;SDS011;11096;51.338;12.524;2022-07-24T04:55:01;6.15;;;4.95;;
21862;SDS011;11096;51.338;12.524;2022-07-24T04:57:27;6.90;;;5.53;;
21862;SDS011;11096;51.338;12.524;2022-07-24T04:59:52;7.95;;;5.55;;
21862;SDS011;11096;51.338;12.524;2022-07-24T05:02:18;11.75;;;5.40;;
21862;SDS011;11096;51.338;12.524;2022-07-24T05:04:43;5.57;;;4.78;;
21862;SDS011;11096;51.338;12.524;2022-07-24T05:07:08;7.60;;;5.25;;
21862;SDS011;11096;51.338;12.524;2022-07-24T05:09:34;5.82;;;4.93;;
21862;SDS011;11096;51.338;12.524;2022-07-24T05:11:59;9.02;;;5.00;;
21862;SDS011;11096;51.338;12.524;2022-07-24T05:14:24;6.28;;;5.20;;
21862;SDS011;11096;51.338;12.524;2022-07-24T05:16:50;5.93;;;5.13;;
21862;SDS011;11096;51.338;12.524;2022-07-24T05:19:15;7.57;;;5.00;;
21862;SDS011;11096;51.338;12.524;2022-07-24T05:21:40;7.43;;;5.13;;
21862;SDS011;11096;51.338;12.524;2022-07-24T05:24:06;5.43;;;4.93;;
21862;SDS011;11096;51.338;12.524;2022-07-24T05:26:32;15.02;;;5.38;;
21862;SDS011;11096;51.338;12.524;2022-07-24T05:28:58;6.97;;;5.43;;
21862;SDS011;11096;51.338;12.524;2022-07-24T05:31:24;6.70;;;5.30;;
21862;SDS011;11096;51.338;12.524;2022-07-24T05:33:50;8.27;;;5.00;;
21862;SDS011;11096;51.338;12.524;2022-07-24T05:36:15;8.27;;;5.25;;
21862;SDS011;11096;51.338;12.524;2022-07-24T05:38:41;7.88;;;5.90;;
21862;SDS011;11096;51.338;12.524;2022-07-24T05:41:06;6.50;;;5.50;;
21862;SDS011;11096;51.338;12.524;2022-07-24T05:43:31;8.10;;;5.78;;
21862;SDS011;11096;51.338;12.524;2022-07-24T05:45:57;7.53;;;6.18;;
21862;SDS011;11096;51.338;12.524;2022-07-24T05:48:22;7.25;;;5.20;;
21862;SDS011;11096;51.338;12.524;2022-07-24T05:50:48;9.38;;;5.78;;
21862;SDS011;11096;51.338;12.524;2022-07-24T05:53:13;7.38;;;5.28;;
21862;SDS011;11096;51.338;12.524;2022-07-24T05:55:38;6.88;;;5.03;;
21862;SDS011;11096;51.338;12.524;2022-07-24T05:58:04;9.25;;;5.25;;
21862;SDS011;11096;51.338;12.524;2022-07-24T06:00:29;6.20;;;5.03;;
21862;SDS011;11096;51.338;12.524;2022-07-24T06:02:54;6.47;;;5.25;;
21862;SDS011;11096;51.338;12.524;2022-07-24T06:05:20;5.78;;;4.50;;
21862;SDS011;11096;51.338;12.524;2022-07-24T06:07:45;7.05;;;4.40;;
21862;SDS011;11096;51.338;12.524;2022-07-24T06:10:11;4.85;;;4.10;;
21862;SDS011;11096;51.338;12.524;2022-07-24T06:12:36;5.55;;;3.80;;
21862;SDS011;11096;51.338;12.524;2022-07-24T06:15:02;7.47;;;4.18;;
21862;SDS011;11096;51.338;12.524;2022-07-24T06:17:27;4.63;;;3.80;;
21862;SDS011;11096;51.338;12.524;2022-07-24T06:19:53;3.22;;;2.85;;
21862;SDS011;11096;51.338;12.524;2022-07-24T06:22:18;5.05;;;2.70;;
21862;SDS011;11096;51.338;12.524;2022-07-24T06:24:43;4.47;;;2.92;;
21862;SDS011;11096;51.338;12.524;2022-07-24T06:27:08;3.28;;;2.97;;
21862;SDS011;11096;51.338;12.524;2022-07-24T06:29:34;8.55;;;3.22;;
21862;SDS011;11096;51.338;12.524;2022-07-24T06:31:59;4.90;;;3.10;;
21862;SDS011;11096;51.338;12.524;2022-07-24T06:34:25;5.85;;;3.33;;
21862;SDS011;11096;51.338;12.524;2022-07-24T06:36:50;4.45;;;3.40;;
21862;SDS011;11096;51.338;12.524;2022-07-24T06:39:16;7.28;;;3.25;;
21862;SDS011;11096;51.338;12.524;2022-07-24T06:41:42;4.45;;;3.40;;
21862;SDS011;11096;51.338;12.524;2022-07-24T06:44:07;5.80;;;3.38;;
21862;SDS011;11096;51.338;12.524;2022-07-24T06:46:33;7.07;;;4.00;;
21862;SDS011;11096;51.338;12.524;2022-07-24T06:48:58;3.78;;;3.17;;
21862;SDS011;11096;51.338;12.524;2022-07-24T06:51:24;6.25;;;3.45;;
21862;SDS011;11096;51.338;12.524;2022-07-24T06:53:49;5.05;;;3.40;;
21862;SDS011;11096;51.338;12.524;2022-07-24T06:56:14;3.92;;;3.50;;
21862;SDS011;11096;51.338;12.524;2022-07-24T06:58:40;3.60;;;3.17;;
21862;SDS011;11096;51.338;12.524;2022-07-24T07:01:05;3.70;;;2.90;;
21862;SDS011;11096;51.338;12.524;2022-07-24T07:03:31;5.72;;;3.60;;
21862;SDS011;11096;51.338;12.524;2022-07-24T07:05:56;3.33;;;3.03;;
21862;SDS011;11096;51.338;12.524;2022-07-24T07:08:21;7.10;;;3.03;;
21862;SDS011;11096;51.338;12.524;2022-07-24T07:10:47;5.38;;;2.78;;
21862;SDS011;11096;51.338;12.524;2022-07-24T07:13:12;4.00;;;2.30;;
21862;SDS011;11096;51.338;12.524;2022-07-24T07:15:37;4.93;;;2.60;;
21862;SDS011;11096;51.338;12.524;2022-07-24T07:18:03;2.25;;;2.05;;
21862;SDS011;11096;51.338;12.524;2022-07-24T07:20:28;3.42;;;1.90;;
21862;SDS011;11096;51.338;12.524;2022-07-24T07:22:54;7.15;;;1.50;;
21862;SDS011;11096;51.338;12.524;2022-07-24T07:25:19;3.65;;;1.40;;
21862;SDS011;11096;51.338;12.524;2022-07-24T07:27:44;3.05;;;1.55;;
21862;SDS011;11096;51.338;12.524;2022-07-24T07:30:10;2.75;;;1.25;;
21862;SDS011;11096;51.338;12.524;2022-07-24T07:32:37;3.30;;;1.50;;
21862;SDS011;11096;51.338;12.524;2022-07-24T07:35:03;3.50;;;1.02;;
21862;SDS011;11096;51.338;12.524;2022-07-24T07:37:28;4.20;;;1.23;;
21862;SDS011;11096;51.338;12.524;2022-07-24T07:39:54;3.47;;;1.23;;
21862;SDS011;11096;51.338;12.524;2022-07-24T07:42:19;3.05;;;1.30;;
21862;SDS011;11096;51.338;12.524;2022-07-24T07:44:45;4.03;;;1.02;;
21862;SDS011;11096;51.338;12.524;2022-07-24T07:47:10;2.35;;;1.00;;
21862;SDS011;11096;51.338;12.524;2022-07-24T07:49:35;3.28;;;1.08;;
21862;SDS011;11096;51.338;12.524;2022-07-24T07:52:01;3.92;;;1.13;;
21862;SDS011;11096;51.338;12.524;2022-07-24T07:54:26;2.17;;;1.00;;
21862;SDS011;11096;51.338;12.524;2022-07-24T07:56:52;2.55;;;1.27;;
21862;SDS011;11096;51.338;12.524;2022-07-24T07:59:17;4.75;;;1.08;;
21862;SDS011;11096;51.338;12.524;2022-07-24T08:01:42;1.80;;;1.23;;
21862;SDS011;11096;51.338;12.524;2022-07-24T08:04:08;3.20;;;1.20;;
21862;SDS011;11096;51.338;12.524;2022-07-24T08:06:33;3.72;;;1.13;;
21862;SDS011;11096;51.338;12.524;2022-07-24T08:08:59;2.65;;;1.50;;
21862;SDS011;11096;51.338;12.524;2022-07-24T08:11:24;2.28;;;1.00;;
21862;SDS011;11096;51.338;12.524;2022-07-24T08:13:49;1.73;;;1.15;;
21862;SDS011;11096;51.338;12.524;2022-07-24T08:16:15;2.25;;;1.00;;
21862;SDS011;11096;51.338;12.524;2022-07-24T08:18:40;2.97;;;1.05;;
21862;SDS011;11096;51.338;12.524;2022-07-24T08:21:06;1.15;;;0.88;;
21862;SDS011;11096;51.338;12.524;2022-07-24T08:23:31;5.50;;;1.20;;
21862;SDS011;11096;51.338;12.524;2022-07-24T08:25:56;1.77;;;1.00;;
21862;SDS011;11096;51.338;12.524;2022-07-24T08:28:22;4.05;;;1.00;;
21862;SDS011;11096;51.338;12.524;2022-07-24T08:30:48;7.63;;;1.20;;
21862;SDS011;11096;51.338;12.524;2022-07-24T08:33:16;1.20;;;0.90;;
21862;SDS011;11096;51.338;12.524;2022-07-24T08:35:41;4.22;;;0.98;;
21862;SDS011;11096;51.338;12.524;2022-07-24T08:38:07;4.70;;;1.23;;
21862;SDS011;11096;51.338;12.524;2022-07-24T08:40:33;3.35;;;0.90;;
21862;SDS011;11096;51.338;12.524;2022-07-24T08:43:00;2.13;;;1.02;;
21862;SDS011;11096;51.338;12.524;2022-07-24T08:45:26;2.75;;;0.93;;
21862;SDS011;11096;51.338;12.524;2022-07-24T08:47:52;3.05;;;0.90;;
21862;SDS011;11096;51.338;12.524;2022-07-24T08:50:20;1.75;;;0.80;;
21862;SDS011;11096;51.338;12.524;2022-07-24T08:52:46;2.90;;;1.13;;
21862;SDS011;11096;51.338;12.524;2022-07-24T08:55:11;2.45;;;0.98;;
21862;SDS011;11096;51.338;12.524;2022-07-24T08:57:37;2.58;;;0.77;;
21862;SDS011;11096;51.338;12.524;2022-07-24T09:00:03;2.33;;;1.10;;
21862;SDS011;11096;51.338;12.524;2022-07-24T09:02:29;4.78;;;1.20;;
21862;SDS011;11096;51.338;12.524;2022-07-24T09:04:58;2.97;;;0.93;;
21862;SDS011;11096;51.338;12.524;2022-07-24T09:07:27;6.60;;;1.00;;
21862;SDS011;11096;51.338;12.524;2022-07-24T09:09:59;2.67;;;1.25;;
21862;SDS011;11096;51.338;12.524;2022-07-24T09:12:26;5.25;;;1.20;;
21862;SDS011;11096;51.338;12.524;2022-07-24T09:14:55;1.33;;;1.02;;
21862;SDS011;11096;51.338;12.524;2022-07-24T09:17:21;2.40;;;0.90;;
21862;SDS011;11096;51.338;12.524;2022-07-24T09:22:16;1.30;;;0.70;;
21862;SDS011;11096;51.338;12.524;2022-07-24T09:27:31;3.03;;;1.08;;
21862;SDS011;11096;51.338;12.524;2022-07-24T09:29:57;3.88;;;1.17;;
21862;SDS011;11096;51.338;12.524;2022-07-24T09:32:23;3.17;;;1.00;;
21862;SDS011;11096;51.338;12.524;2022-07-24T09:34:51;4.45;;;1.27;;
21862;SDS011;11096;51.338;12.524;2022-07-24T09:37:18;3.47;;;0.90;;
21862;SDS011;11096;51.338;12.524;2022-07-24T09:39:43;4.60;;;1.10;;
21862;SDS011;11096;51.338;12.524;2022-07-24T09:42:09;3.58;;;1.10;;
21862;SDS011;11096;51.338;12.524;2022-07-24T09:44:35;2.63;;;1.00;;
21862;SDS011;11096;51.338;12.524;2022-07-24T09:47:11;2.58;;;0.93;;
21862;SDS011;11096;51.338;12.524;2022-07-24T09:49:37;1.55;;;0.90;;
21862;SDS011;11096;51.338;12.524;2022-07-24T09:52:08;4.00;;;1.20;;
21862;SDS011;11096;51.338;12.524;2022-07-24T09:54:42;4.88;;;1.20;;
21862;SDS011;11096;51.338;12.524;2022-07-24T09:59:48;3.10;;;1.10;;
21862;SDS011;11096;51.338;12.524;2022-07-24T10:02:23;2.35;;;1.02;;
21862;SDS011;11096;51.338;12.524;2022-07-24T10:04:52;2.33;;;1.13;;
21862;SDS011;11096;51.338;12.524;2022-07-24T10:07:19;3.05;;;1.05;;
21862;SDS011;11096;51.338;12.524;2022-07-24T10:09:46;5.05;;;1.25;;
21862;SDS011;11096;51.338;12.524;2022-07-24T10:12:18;3.55;;;1.20;;
21862;SDS011;11096;51.338;12.524;2022-07-24T10:14:46;2.88;;;1.38;;
21862;SDS011;11096;51.338;12.524;2022-07-24T10:17:14;2.45;;;1.30;;
21862;SDS011;11096;51.338;12.524;2022-07-24T10:19:41;2.08;;;1.25;;
21862;SDS011;11096;51.338;12.524;2022-07-24T10:22:12;3.40;;;1.27;;
21862;SDS011;11096;51.338;12.524;2022-07-24T10:24:55;8.60;;;1.30;;
21862;SDS011;11096;51.338;12.524;2022-07-24T10:29:54;3.22;;;1.30;;
21862;SDS011;11096;51.338;12.524;2022-07-24T10:32:22;2.25;;;1.30;;
21862;SDS011;11096;51.338;12.524;2022-07-24T10:45:31;3.28;;;1.38;;
21862;SDS011;11096;51.338;12.524;2022-07-24T10:47:57;1.90;;;1.23;;
21862;SDS011;11096;51.338;12.524;2022-07-24T10:50:22;3.80;;;1.20;;
21862;SDS011;11096;51.338;12.524;2022-07-24T10:52:48;10.13;;;1.52;;
21862;SDS011;11096;51.338;12.524;2022-07-24T10:57:50;5.10;;;1.30;;
21862;SDS011;11096;51.338;12.524;2022-07-24T11:00:48;2.15;;;1.27;;
21862;SDS011;11096;51.338;12.524;2022-07-24T11:08:36;3.70;;;1.35;;
21862;SDS011;11096;51.338;12.524;2022-07-24T11:11:06;1.73;;;1.13;;
21862;SDS011;11096;51.338;12.524;2022-07-24T11:18:40;3.05;;;1.15;;
21862;SDS011;11096;51.338;12.524;2022-07-24T11:21:34;2.88;;;0.90;;
21862;SDS011;11096;51.338;12.524;2022-07-24T11:27:02;4.32;;;1.00;;
21862;SDS011;11096;51.338;12.524;2022-07-24T11:29:32;2.13;;;1.13;;
21862;SDS011;11096;51.338;12.524;2022-07-24T11:32:03;5.65;;;1.25;;
21862;SDS011;11096;51.338;12.524;2022-07-24T11:34:47;2.95;;;1.20;;
21862;SDS011;11096;51.338;12.524;2022-07-24T11:37:14;1.90;;;1.33;;
21862;SDS011;11096;51.338;12.524;2022-07-24T11:39:41;2.50;;;1.30;;
21862;SDS011;11096;51.338;12.524;2022-07-24T11:42:13;3.20;;;1.35;;
21862;SDS011;11096;51.338;12.524;2022-07-24T11:44:41;1.90;;;1.13;;
21862;SDS011;11096;51.338;12.524;2022-07-24T11:47:12;3.17;;;1.27;;
21862;SDS011;11096;51.338;12.524;2022-07-24T11:49:46;2.67;;;1.33;;
21862;SDS011;11096;51.338;12.524;2022-07-24T11:52:20;2.30;;;1.33;;
21862;SDS011;11096;51.338;12.524;2022-07-24T11:55:14;1.42;;;0.73;;
21862;SDS011;11096;51.338;12.524;2022-07-24T11:57:47;3.72;;;1.60;;
21862;SDS011;11096;51.338;12.524;2022-07-24T12:00:15;2.83;;;0.95;;
21862;SDS011;11096;51.338;12.524;2022-07-24T12:02:44;2.90;;;1.38;;
21862;SDS011;11096;51.338;12.524;2022-07-24T12:05:22;3.35;;;1.30;;
21862;SDS011;11096;51.338;12.524;2022-07-24T12:07:54;3.05;;;1.20;;
21862;SDS011;11096;51.338;12.524;2022-07-24T12:10:24;6.35;;;1.15;;
21862;SDS011;11096;51.338;12.524;2022-07-24T12:12:50;2.65;;;1.10;;
21862;SDS011;11096;51.338;12.524;2022-07-24T12:15:18;2.90;;;1.52;;
21862;SDS011;11096;51.338;12.524;2022-07-24T12:18:04;2.83;;;1.20;;
21862;SDS011;11096;51.338;12.524;2022-07-24T12:20:39;2.85;;;1.27;;
21862;SDS011;11096;51.338;12.524;2022-07-24T12:23:06;6.47;;;1.15;;
21862;SDS011;11096;51.338;12.524;2022-07-24T12:25:34;2.55;;;1.23;;
21862;SDS011;11096;51.338;12.524;2022-07-24T12:28:04;2.28;;;1.23;;
21862;SDS011;11096;51.338;12.524;2022-07-24T12:30:32;1.45;;;1.13;;
21862;SDS011;11096;51.338;12.524;2022-07-24T12:33:42;1.55;;;1.17;;
21862;SDS011;11096;51.338;12.524;2022-07-24T12:38:25;1.50;;;1.20;;
21862;SDS011;11096;51.338;12.524;2022-07-24T12:40:50;3.03;;;1.20;;
21862;SDS011;11096;51.338;12.524;2022-07-24T12:43:16;3.33;;;1.10;;
21862;SDS011;11096;51.338;12.524;2022-07-24T12:45:41;1.67;;;0.95;;
21862;SDS011;11096;51.338;12.524;2022-07-24T12:48:11;2.72;;;1.17;;
21862;SDS011;11096;51.338;12.524;2022-07-24T12:50:57;3.03;;;1.20;;
21862;SDS011;11096;51.338;12.524;2022-07-24T12:53:23;2.88;;;1.10;;
21862;SDS011;11096;51.338;12.524;2022-07-24T12:58:46;2.03;;;1.17;;
21862;SDS011;11096;51.338;12.524;2022-07-24T13:04:13;4.68;;;1.23;;
21862;SDS011;11096;51.338;12.524;2022-07-24T13:06:42;3.10;;;1.20;;
21862;SDS011;11096;51.338;12.524;2022-07-24T13:09:11;2.08;;;1.00;;
21862;SDS011;11096;51.338;12.524;2022-07-24T13:11:38;1.50;;;1.17;;
21862;SDS011;11096;51.338;12.524;2022-07-24T13:14:05;2.97;;;1.15;;
21862;SDS011;11096;51.338;12.524;2022-07-24T13:16:32;3.15;;;1.05;;
21862;SDS011;11096;51.338;12.524;2022-07-24T13:19:00;1.88;;;1.10;;
21862;SDS011;11096;51.338;12.524;2022-07-24T13:21:26;3.20;;;0.80;;
21862;SDS011;11096;51.338;12.524;2022-07-24T13:23:51;3.70;;;1.27;;
21862;SDS011;11096;51.338;12.524;2022-07-24T13:26:17;1.90;;;0.88;;
21862;SDS011;11096;51.338;12.524;2022-07-24T13:28:43;2.70;;;1.05;;
21862;SDS011;11096;51.338;12.524;2022-07-24T13:31:09;2.25;;;1.23;;
21862;SDS011;11096;51.338;12.524;2022-07-24T13:33:34;1.38;;;1.05;;
21862;SDS011;11096;51.338;12.524;2022-07-24T13:36:00;1.63;;;1.00;;
21862;SDS011;11096;51.338;12.524;2022-07-24T13:38:25;1.60;;;0.98;;
21862;SDS011;11096;51.338;12.524;2022-07-24T13:40:51;1.20;;;1.10;;
21862;SDS011;11096;51.338;12.524;2022-07-24T13:43:16;2.47;;;0.90;;
21862;SDS011;11096;51.338;12.524;2022-07-24T13:45:41;3.65;;;0.98;;
21862;SDS011;11096;51.338;12.524;2022-07-24T13:48:07;2.40;;;1.05;;
21862;SDS011;11096;51.338;12.524;2022-07-24T13:50:33;3.15;;;0.95;;
21862;SDS011;11096;51.338;12.524;2022-07-24T13:52:58;2.53;;;0.93;;
21862;SDS011;11096;51.338;12.524;2022-07-24T13:55:24;1.40;;;1.25;;
21862;SDS011;11096;51.338;12.524;2022-07-24T13:57:49;1.42;;;1.10;;
21862;SDS011;11096;51.338;12.524;2022-07-24T14:00:14;3.30;;;0.80;;
21862;SDS011;11096;51.338;12.524;2022-07-24T14:02:40;0.93;;;0.90;;
21862;SDS011;11096;51.338;12.524;2022-07-24T14:05:05;1.17;;;0.90;;
21862;SDS011;11096;51.338;12.524;2022-07-24T14:07:31;2.45;;;1.00;;
21862;SDS011;11096;51.338;12.524;2022-07-24T14:09:56;4.43;;;1.20;;
21862;SDS011;11096;51.338;12.524;2022-07-24T14:12:22;6.25;;;1.15;;
21862;SDS011;11096;51.338;12.524;2022-07-24T14:14:47;1.85;;;0.90;;
21862;SDS011;11096;51.338;12.524;2022-07-24T14:17:12;1.52;;;0.98;;
21862;SDS011;11096;51.338;12.524;2022-07-24T14:19:38;1.27;;;0.77;;
21862;SDS011;11096;51.338;12.524;2022-07-24T14:22:04;2.38;;;1.02;;
21862;SDS011;11096;51.338;12.524;2022-07-24T14:24:29;2.55;;;1.10;;
21862;SDS011;11096;51.338;12.524;2022-07-24T14:26:55;2.20;;;0.90;;
21862;SDS011;11096;51.338;12.524;2022-07-24T14:29:20;1.80;;;1.30;;
21862;SDS011;11096;51.338;12.524;2022-07-24T14:31:46;3.72;;;1.17;;
21862;SDS011;11096;51.338;12.524;2022-07-24T14:34:11;2.35;;;1.20;;
21862;SDS011;11096;51.338;12.524;2022-07-24T14:36:37;4.60;;;1.25;;
21862;SDS011;11096;51.338;12.524;2022-07-24T14:39:03;3.88;;;1.00;;
21862;SDS011;11096;51.338;12.524;2022-07-24T14:41:28;3.72;;;1.48;;
21862;SDS011;11096;51.338;12.524;2022-07-24T14:43:54;3.13;;;1.17;;
21862;SDS011;11096;51.338;12.524;2022-07-24T14:46:19;1.80;;;1.30;;
21862;SDS011;11096;51.338;12.524;2022-07-24T14:48:44;2.55;;;1.20;;
21862;SDS011;11096;51.338;12.524;2022-07-24T14:51:10;1.42;;;1.15;;
21862;SDS011;11096;51.338;12.524;2022-07-24T14:53:36;5.07;;;1.38;;
21862;SDS011;11096;51.338;12.524;2022-07-24T14:56:01;2.88;;;1.63;;
21862;SDS011;11096;51.338;12.524;2022-07-24T14:58:27;5.28;;;1.55;;
21862;SDS011;11096;51.338;12.524;2022-07-24T15:00:52;1.65;;;1.30;;
21862;SDS011;11096;51.338;12.524;2022-07-24T15:03:18;3.00;;;1.60;;
21862;SDS011;11096;51.338;12.524;2022-07-24T15:05:43;4.60;;;1.55;;
21862;SDS011;11096;51.338;12.524;2022-07-24T15:08:08;2.17;;;1.45;;
21862;SDS011;11096;51.338;12.524;2022-07-24T15:10:34;6.47;;;1.63;;
21862;SDS011;11096;51.338;12.524;2022-07-24T15:12:59;1.75;;;1.20;;
21862;SDS011;11096;51.338;12.524;2022-07-24T15:15:24;3.13;;;1.60;;